GOOYDNMM

Guest
Details From GOOY - Dakar Leopold Sedar Senghor Intl
To DNMM - Lagos Murtala Muhammed
Flight Number -
Tags Decoded
Created
Modified
Stats Distance 1,322 nm / 2,448 km
Max Altitude 0 ft / 0 m
Waypoints 2
Social Downloads 0
Likes 0
Share VATSIM

Download

Looking for another format? Having issues loading an existing format? Contact us
Advertisement - Login to hide

Notes

Decoded

Route

GOOY DNMM

ID Type Via Altitude Latitude Longitude Leg Dist Tot Dist Heading (true) Name
O GOOY APT - 0 ft / 0 m 14.73171˚ -17.50427˚ - 0 nm - -
O DNMM APT - 0 ft / 0 m 6.59701˚ 3.32914˚ 1321 nm 1321 nm 109° / 113° -

Altitude Profile

Advertisement - Login to hide

Weather


0- 5 10 15 20 25 30 35+ Temperature / ° C

Clouds and Precipitation
Forecast for 2017-12-13 06:00 UTC. Updated 28 minutes ago

Ground ~20,000 ft ~40,000 ft Winds

GOOY

Details ICAO GOOY (DKR)
Name Dakar Leopold Sedar Senghor Intl
Region Senegal
Timezone Africa/Dakar (UTC+0.0)
Stats Elevation 85 ft / 26 m (AMSL)
Location 14.739711° -17.490226°
Runways 2
Magnetic Variation 7.348° W

METAR

GOOY 130500Z 02013KT 7000 NSC 22/16 Q1013

Decode

TAF

TAF GOOY 122330Z 1300/1406 02013KT 7000 NSC= TAF GBYD 122330Z 1300/1406 01008KT 8000 NSC

Decode

Departure Runways

ID Width Length Bearing (true) Bearing (mag) Surface Threshold Offset Overrun Length
03 98 ft / 30 m 4,921 ft / 1,500 m 22.31° 29.66° Asphalt 0 ft / 0 m 98 ft / 30 m
18 148 ft / 45 m 11,511 ft / 3,509 m 172.57° 179.92° Asphalt 525 ft / 160 m 197 ft / 60 m
21 98 ft / 30 m 4,921 ft / 1,500 m 202.31° 209.66° Asphalt 0 ft / 0 m 1,590 ft / 485 m
36 148 ft / 45 m 11,511 ft / 3,509 m 352.57° 359.92° Asphalt 0 ft / 0 m 197 ft / 60 m

DNMM

Details ICAO DNMM (LOS)
Name Lagos Murtala Muhammed
Region Nigeria
Timezone Africa/Lagos (UTC+1.0)
Stats Elevation 135 ft / 41 m (AMSL)
Location 6.577380° 3.321347°
Runways 2
Magnetic Variation 2.226° W

METAR

Not found

TAF

TAF DNMM 122130Z 1300/1406 VRB02KT 1600 HZ NSC TEMPO 1300/1306 3000

Decode

Destination Runways

ID Width Length Bearing (true) Bearing (mag) Surface Threshold Offset Overrun Length
18L 148 ft / 45 m 9,049 ft / 2,758 m 180.00° 182.23° Asphalt 300 ft / 91 m 0 ft / 0 m
18R 197 ft / 60 m 12,867 ft / 3,922 m 180.00° 182.23° Asphalt 600 ft / 183 m 0 ft / 0 m
36L 197 ft / 60 m 12,867 ft / 3,922 m 0.00° 2.23° Asphalt 600 ft / 183 m 0 ft / 0 m
36R 148 ft / 45 m 9,049 ft / 2,758 m 0.00° 2.23° Asphalt 300 ft / 91 m 0 ft / 0 m

Approach Navaids

Runway Type Ident Frequency Range Bearing (true) Bearing (mag) Slope Elevation
18L Localiser ILA 110.30 MHz 18 nm / 33 km 179.94° 182.17° - 92 ft / 28 m (AMSL)
18L Glidescope ILA 110.30 MHz 10 nm / 19 km 179.94° 182.17° 3.00° 177 ft / 54 m (AMSL)
18L DME ILA 108.10 MHz 18 nm / 33 km - - - 135 ft / 41 m (AMSL)
18R Localiser ILB 108.10 MHz 18 nm / 33 km 179.94° 182.17° - 56 ft / 17 m (AMSL)
18R Glidescope ILB 108.10 MHz 10 nm / 19 km 179.94° 182.17° 3.00° 105 ft / 32 m (AMSL)
18R DME ILB 109.30 MHz 18 nm / 33 km - - - 135 ft / 41 m (AMSL)

Popular Alternatives